Time;durP1;ratioP1;P1;durP2;ratioP2;P2;SDS_P1;SDS_P2;PMS_P1;PMS_P2;Temp;Humidity;BMP_temperature;BMP_pressure;BME280_temperature;BME280_humidity;BME280_pressure;Samples;Min_cycle;Max_cycle;Signal;HPM_P1;HPM_P2
2023/08/13 00:02:01;;;;;;;4.88;4.47;;;;;;;-144.30;53.42;84414.53;5091618;28;20214;-51
2023/08/13 00:07:48;;;;;;;6.07;4.45;;;;;;;-144.30;53.53;84474.16;5090039;28;20206;-51
2023/08/13 00:10:42;;;;;;;6.63;4.68;;;;;;;-144.30;53.58;84418.50;5084814;28;20230;-49
2023/08/13 00:13:32;;;;;;;7.25;4.57;;;;;;;-144.30;53.58;84428.44;5090025;28;20195;-50
2023/08/13 00:16:19;;;;;;;5.97;4.40;;;;;;;-144.30;53.66;84428.44;5087520;28;20282;-51
2023/08/13 00:19:13;;;;;;;5.80;4.57;;;;;;;-144.30;53.64;84446.31;5086145;28;20254;-50
2023/08/13 00:21:59;;;;;;;5.10;4.25;;;;;;;-144.30;53.59;84442.34;5088039;28;20195;-55
2023/08/13 00:27:59;;;;;;;7.28;6.68;;;;;;;-144.30;54.26;84454.28;5089451;28;20203;-56
2023/08/13 00:30:55;;;;;;;;;;;;;;;;;;;;;
2023/08/13 00:33:42;;;;;;;8.85;7.00;;;;;;;-144.30;55.14;84450.31;5090721;28;20203;-51
2023/08/13 00:36:30;;;;;;;8.57;6.97;;;;;;;-144.30;55.49;84466.19;5090075;28;20191;-56
2023/08/13 00:39:19;;;;;;;9.15;6.88;;;;;;;-144.30;56.06;84482.09;5089411;28;20191;-58
2023/08/13 00:42:14;;;;;;;11.25;7.57;;;;;;;-144.30;56.19;84490.06;5110555;28;20205;-55
2023/08/13 00:45:07;;;;;;;8.60;7.38;;;;;;;-144.30;56.33;84478.13;5110265;28;20199;-49
2023/08/13 00:48:00;;;;;;;7.82;7.05;;;;;;;-144.30;56.48;84498.00;5109671;28;20302;-50
2023/08/13 00:50:42;;;;;;;8.00;6.88;;;;;;;-144.30;56.79;84521.84;5110850;28;20609;-54
2023/08/13 00:53:38;;;;;;;9.55;6.88;;;;;;;-144.30;57.26;84529.81;5111091;28;20194;-55
2023/08/13 00:56:24;;;;;;;7.15;6.45;;;;;;;-144.30;57.21;84513.91;5110455;28;20218;-55
2023/08/13 00:59:02;;;;;;;7.18;6.47;;;;;;;-144.30;57.11;84523.84;5109240;28;20199;-55
2023/08/13 01:01:58;;;;;;;6.82;6.32;;;;;;;-144.30;57.53;84525.81;5110037;28;20202;-55
2023/08/13 01:04:51;;;;;;;7.43;6.00;;;;;;;-144.30;57.93;84557.63;5110817;28;20686;-51
2023/08/13 01:07:57;;;;;;;6.43;5.90;;;;;;;-144.30;58.31;84593.41;5110694;28;20202;-50
2023/08/13 01:13:57;;;;;;;5.95;5.47;;;;;;;-144.30;59.05;84575.50;5109663;28;20303;-50
2023/08/13 01:16:54;;;;;;;9.43;6.35;;;;;;;-144.30;59.49;84585.44;5109057;28;20230;-51
2023/08/13 01:20:00;;;;;;;6.28;5.65;;;;;;;-144.30;60.12;84601.34;5068511;28;20196;-50
2023/08/13 01:23:11;;;;;;;;;;;;;;;;;;;;;
2023/08/13 01:26:08;;;;;;;5.47;4.90;;;;;;;-144.30;60.74;84633.16;5067774;28;20202;-52
2023/08/13 01:29:03;;;;;;;7.72;5.82;;;;;;;-144.30;60.85;84643.09;5068801;28;20271;-55
2023/08/13 01:32:01;;;;;;;6.18;5.55;;;;;;;-144.30;60.79;84613.28;5069981;28;20684;-50
2023/08/13 01:34:52;;;;;;;7.10;5.53;;;;;;;-144.30;60.96;84686.81;5069677;28;20227;-50
2023/08/13 01:37:47;;;;;;;9.63;5.63;;;;;;;-144.30;60.86;84641.09;5068875;28;20227;-51
2023/08/13 01:40:33;;;;;;;5.80;5.30;;;;;;;-144.30;60.98;84670.91;5069410;28;20195;-54
2023/08/13 01:43:33;;;;;;;5.90;5.43;;;;;;;-144.30;61.29;84674.88;5069334;28;20191;-49
2023/08/13 01:49:12;;;;;;;6.25;5.75;;;;;;;-144.30;61.50;84651.03;5069382;28;20602;-51
2023/08/13 01:55:10;;;;;;;6.22;5.53;;;;;;;-144.30;62.25;84657.00;5068575;28;20225;-55
2023/08/13 01:57:57;;;;;;;7.10;6.13;;;;;;;-144.30;62.24;84672.91;5068803;28;20207;-50
2023/08/13 02:00:55;;;;;;;6.28;5.45;;;;;;;-144.30;62.08;84655.00;5069104;28;20660;-51
2023/08/13 02:03:43;;;;;;;7.38;5.43;;;;;;;-144.30;62.06;84668.94;5069113;28;20295;-54
2023/08/13 02:06:14;;;;;;;14.77;5.93;;;;;;;-144.30;61.93;84668.94;5067668;28;20223;-49
2023/08/13 02:09:00;;;;;;;10.45;6.00;;;;;;;-144.30;61.71;84676.88;5068887;28;20204;-51
2023/08/13 02:11:49;;;;;;;6.32;5.25;;;;;;;-144.30;61.12;84649.03;5068898;28;20195;-51
2023/08/13 02:14:49;;;;;;;6.32;5.88;;;;;;;-144.30;61.13;84629.19;5069142;28;20568;-51
2023/08/13 02:17:41;;;;;;;6.13;5.75;;;;;;;-144.30;61.54;84684.81;5075351;28;20299;-51
2023/08/13 02:20:45;;;;;;;6.40;5.60;;;;;;;-144.30;62.03;84619.22;5109542;28;20770;-52
2023/08/13 02:23:41;;;;;;;6.30;5.57;;;;;;;-144.30;61.86;84639.13;5108091;28;20194;-50
2023/08/13 02:26:28;;;;;;;7.00;6.05;;;;;;;-144.30;62.06;84708.66;5109355;28;20288;-55
2023/08/13 02:29:18;;;;;;;7.13;5.28;;;;;;;-144.30;62.73;84718.63;5106940;28;20702;-55
2023/08/13 02:32:05;;;;;;;6.50;5.75;;;;;;;-144.30;63.43;84708.66;5108036;28;20202;-55
2023/08/13 02:35:02;;;;;;;6.75;6.25;;;;;;;-144.30;63.88;84724.56;5108223;28;20218;-53
2023/08/13 02:40:56;;;;;;;7.97;6.10;;;;;;;-144.30;64.46;84774.25;5109369;28;20667;-50
2023/08/13 02:43:58;;;;;;;9.02;6.30;;;;;;;-144.30;64.48;84778.25;5107605;28;20226;-55
2023/08/13 02:47:09;;;;;;;7.72;6.25;;;;;;;-144.30;64.80;84967.06;5108726;28;20198;-54
2023/08/13 02:49:50;;;;;;;7.47;6.20;;;;;;;-144.30;64.89;84756.38;5107288;28;20522;-50
2023/08/13 02:52:48;;;;;;;6.82;6.13;;;;;;;-144.30;64.93;84744.44;5108850;28;20277;-56
2023/08/13 02:55:48;;;;;;;7.55;6.43;;;;;;;-144.30;64.58;84750.41;5107778;28;20202;-51
2023/08/13 02:58:42;;;;;;;6.72;6.03;;;;;;;-144.30;64.56;84758.38;5105055;28;20222;-55
2023/08/13 03:01:44;;;;;;;6.95;6.32;;;;;;;-144.30;64.52;84748.44;5107255;28;20195;-50
2023/08/13 03:04:32;;;;;;;6.82;6.22;;;;;;;-144.30;64.78;84748.44;5107471;28;20743;-55
2023/08/13 03:07:20;;;;;;;6.28;5.80;;;;;;;-144.30;64.81;84742.47;5108664;28;20269;-55
2023/08/13 03:10:09;;;;;;;6.88;6.35;;;;;;;-144.30;65.11;84764.31;5108317;28;20218;-55
2023/08/13 03:12:56;;;;;;;6.13;5.57;;;;;;;-144.30;65.57;84784.19;5112291;28;20584;-55
2023/08/13 03:15:55;;;;;;;6.50;6.00;;;;;;;-144.30;65.61;84776.25;5110067;28;20199;-50
2023/08/13 03:18:41;;;;;;;6.35;5.80;;;;;;;-144.30;65.25;84760.34;5112405;28;20238;-49
2023/08/13 03:21:41;;;;;;;6.35;5.95;;;;;;;-144.30;65.19;84810.03;5112877;28;20187;-50
2023/08/13 03:24:29;;;;;;;5.65;5.35;;;;;;;-144.30;65.00;84786.19;5112764;28;20670;-54
2023/08/13 03:27:20;;;;;;;6.13;5.63;;;;;;;-144.30;64.84;84790.16;5112071;28;20202;-50
2023/08/13 03:30:13;;;;;;;6.55;5.95;;;;;;;-144.30;64.44;84816.00;5112088;28;20219;-55
2023/08/13 03:33:11;;;;;;;;;;;;;;;;;;;;;
2023/08/13 03:35:57;;;;;;;7.70;5.97;;;;;;;-144.30;64.29;84772.28;5110695;28;20215;-50
2023/08/13 03:38:48;;;;;;;6.32;5.82;;;;;;;-144.30;63.97;84768.31;5112506;28;20651;-54
2023/08/13 03:41:48;;;;;;;13.48;6.72;;;;;;;-144.30;63.53;84744.44;5112447;28;20277;-50
2023/08/13 03:44:48;;;;;;;6.90;6.20;;;;;;;-144.30;63.48;84718.63;5112393;28;20198;-54
2023/08/13 03:47:47;;;;;;;7.05;6.40;;;;;;;-144.30;63.34;84692.78;5112192;28;20195;-55
2023/08/13 03:50:28;;;;;;;6.43;5.93;;;;;;;-144.30;63.26;84722.59;5111685;28;20222;-55
2023/08/13 03:53:11;;;;;;;8.65;6.28;;;;;;;-144.30;62.95;84712.66;5111427;28;20241;-55
2023/08/13 03:59:08;;;;;;;13.80;6.38;;;;;;;-144.30;62.67;84692.78;5106825;28;20201;-55
2023/08/13 04:01:59;;;;;;;7.75;6.18;;;;;;;-144.30;62.05;84645.06;5110865;28;20639;-55
2023/08/13 04:04:50;;;;;;;7.55;5.97;;;;;;;-144.30;61.35;84631.16;5111247;28;20262;-55
2023/08/13 04:07:18;;;;;;;7.50;5.50;;;;;;;-144.30;60.79;84611.28;5111156;28;20209;-51
2023/08/13 04:09:54;;;;;;;6.78;6.13;;;;;;;-144.30;58.30;84498.00;5108430;28;20218;-49
2023/08/13 04:12:25;;;;;;;7.65;6.30;;;;;;;-144.30;54.57;84279.38;5111337;28;20622;-50
2023/08/13 04:14:57;;;;;;;7.22;5.30;;;;;;;-144.30;50.82;84080.66;5111400;28;20301;-51
2023/08/13 04:17:35;;;;;;;7.60;4.80;;;;;;;-144.30;48.32;83907.78;5110910;28;20194;-54
2023/08/13 04:20:10;;;;;;;8.57;5.70;;;;;;;-144.30;46.24;83786.56;5111200;28;20197;-55
2023/08/13 04:22:58;;;;;;;6.13;5.28;;;;;;;-144.30;43.83;83611.72;5110372;28;20198;-55
2023/08/13 04:25:49;;;;;;;5.95;5.45;;;;;;;-144.30;41.32;83411.06;5109482;28;20558;-55
2023/08/13 04:28:28;;;;;;;6.03;5.15;;;;;;;-144.30;39.32;83204.44;5109729;28;20195;-55
2023/08/13 04:31:05;;;;;;;9.70;5.50;;;;;;;-144.30;38.13;83035.56;5107887;28;20221;-55
2023/08/13 04:33:41;;;;;;;5.50;5.10;;;;;;;-144.30;36.89;82840.88;5111716;28;20636;-52
2023/08/13 04:36:15;;;;;;;6.65;6.03;;;;;;;-144.30;34.98;82616.44;5109985;28;20578;-56
2023/08/13 04:38:49;;;;;;;5.07;4.65;;;;;;;-144.30;33.99;82435.66;5105677;27;20195;-56
2023/08/13 04:41:23;;;;;;;6.85;5.03;;;;;;;-144.30;33.07;82332.38;5111212;28;20187;-56
2023/08/13 04:44:07;;;;;;;5.43;4.97;;;;;;;-144.30;32.49;82213.22;5111857;28;20284;-56
2023/08/13 04:46:55;;;;;;;4.72;4.47;;;;;;;-144.30;31.40;82022.56;5111834;28;20230;-52
2023/08/13 04:49:29;;;;;;;4.95;4.50;;;;;;;-144.30;30.68;81923.25;5110821;28;20702;-55
2023/08/13 04:52:00;;;;;;;4.90;4.32;;;;;;;-144.30;30.23;81774.31;5110507;28;20190;-55
2023/08/13 04:54:37;;;;;;;5.57;4.22;;;;;;;-144.30;30.11;81768.38;5111285;28;20198;-55
2023/08/13 04:57:07;;;;;;;8.02;4.65;;;;;;;-144.30;29.53;81597.59;5109057;28;20205;-55
2023/08/13 04:59:44;;;;;;;5.25;4.97;;;;;;;-144.30;29.38;81498.31;5110747;28;20199;-56
2023/08/13 05:02:19;;;;;;;4.18;3.97;;;;;;;-144.30;29.24;81518.16;5111219;28;20197;-52
2023/08/13 05:04:59;;;;;;;5.45;4.38;;;;;;;-144.30;28.38;81267.97;5109314;28;20287;-54
2023/08/13 05:07:45;;;;;;;5.13;4.38;;;;;;;-144.30;27.77;81061.47;5110851;28;20194;-55
2023/08/13 05:10:29;;;;;;;4.25;4.00;;;;;;;-144.30;27.22;80837.13;5111525;28;20233;-56
2023/08/13 05:13:05;;;;;;;5.07;4.57;;;;;;;-144.30;27.13;80914.56;5109567;28;20650;-52
2023/08/13 05:15:44;;;;;;;4.68;4.28;;;;;;;-144.30;27.47;80950.28;5111071;28;20741;-52
2023/08/13 05:18:13;;;;;;;5.50;5.00;;;;;;;-144.30;27.06;80904.63;5109195;28;20233;-51
2023/08/13 05:20:57;;;;;;;4.53;4.22;;;;;;;-144.30;27.40;80978.09;5107681;28;20182;-52
2023/08/13 05:23:48;;;;;;;5.07;4.57;;;;;;;-144.30;27.30;80922.50;5108470;28;20617;-56
2023/08/13 05:26:44;;;;;;;4.68;4.25;;;;;;;-144.30;27.08;80805.34;5110694;28;20646;-54
2023/08/13 05:32:06;;;;;;;5.68;4.60;;;;;;;-144.30;26.44;80604.84;5104773;28;20190;-56
2023/08/13 05:34:37;;;;;;;4.22;3.80;;;;;;;-144.30;26.48;80594.94;5109773;28;20202;-55
2023/08/13 05:37:12;;;;;;;9.15;4.28;;;;;;;-144.30;26.55;80604.84;5098178;28;20273;-52
2023/08/13 05:39:47;;;;;;;4.78;4.32;;;;;;;-144.30;27.07;80858.97;5108965;28;20741;-56
2023/08/13 05:42:18;;;;;;;4.28;3.92;;;;;;;-144.30;27.12;80995.97;5110471;28;20596;-56
2023/08/13 05:44:49;;;;;;;4.20;4.00;;;;;;;-144.30;27.14;80920.50;5109354;28;20202;-55
2023/08/13 05:47:23;;;;;;;11.02;10.07;;;;;;;-144.30;27.13;80874.84;5110371;28;20658;-55
2023/08/13 05:49:55;;;;;;;4.82;4.43;;;;;;;-144.30;26.55;80727.94;5110090;28;20217;-56
2023/08/13 05:52:54;;;;;;;15.70;14.27;;;;;;;-144.30;26.42;80640.59;5110411;28;20202;-55
2023/08/13 05:55:47;;;;;;;6.47;4.20;;;;;;;-144.30;26.77;80789.47;5109881;28;20194;-55
2023/08/13 05:58:43;;;;;;;5.53;4.20;;;;;;;-144.30;26.48;80793.44;5108339;28;20191;-56
2023/08/13 06:01:16;;;;;;;4.70;4.40;;;;;;;-144.30;27.28;81069.41;5100377;28;20251;-55
2023/08/13 06:04:00;;;;;;;7.05;5.40;;;;;;;-144.30;27.25;80974.13;5109370;28;20197;-55
2023/08/13 06:06:32;;;;;;;8.75;7.97;;;;;;;-144.30;26.59;80733.88;5109181;28;20198;-55
2023/08/13 06:09:14;;;;;;;8.50;7.80;;;;;;;-144.30;26.30;80640.59;5109858;28;20208;-54
2023/08/13 06:11:55;;;;;;;17.50;15.93;;;;;;;-144.30;26.19;80563.16;5109830;28;20796;-56
2023/08/13 06:14:48;;;;;;;8.98;7.75;;;;;;;-144.30;26.71;80954.25;5097943;28;20208;-52
2023/08/13 06:17:42;;;;;;;6.18;5.70;;;;;;;-144.30;28.17;81557.88;5109448;28;20294;-52
2023/08/13 06:20:31;;;;;;;5.55;4.95;;;;;;;-144.30;30.33;82161.59;5069416;28;20268;-56
2023/08/13 06:26:06;;;;;;;5.18;4.72;;;;;;;-144.30;32.04;82364.16;5065976;28;20257;-53
2023/08/13 06:28:53;;;;;;;7.25;6.22;;;;;;;-144.30;31.93;82280.75;5068578;28;20211;-52
2023/08/13 06:31:52;;;;;;;;;;;;;;;;;;;;;
2023/08/13 06:37:35;;;;;;;4.00;3.80;;;;;;;-144.30;30.15;81947.09;5066393;28;20200;-50
2023/08/13 06:40:07;;;;;;;4.93;4.53;;;;;;;-144.30;29.97;81962.97;5067817;28;20200;-52
2023/08/13 06:43:00;;;;;;;4.38;4.05;;;;;;;-144.30;30.01;81883.53;5069457;28;20199;-54
2023/08/13 06:45:31;;;;;;;7.53;6.80;;;;;;;-144.30;29.30;81724.69;5070273;28;20572;-51
2023/08/13 06:48:45;;;;;;;5.28;4.85;;;;;;;-144.30;28.97;81649.22;5073267;28;20204;-51
2023/08/13 06:51:30;;;;;;;12.35;10.90;;;;;;;-144.30;28.89;81673.03;5072398;28;20215;-52
2023/08/13 06:54:26;;;;;;;4.85;4.10;;;;;;;-144.30;28.64;81653.19;5073013;28;20667;-51
2023/08/13 06:57:06;;;;;;;7.43;6.78;;;;;;;-144.30;28.89;81780.28;5072114;28;20195;-51
2023/08/13 06:59:43;;;;;;;6.32;5.72;;;;;;;-144.30;29.22;81831.91;5073317;28;20202;-56
2023/08/13 07:02:34;;;;;;;6.50;5.78;;;;;;;-144.30;29.51;81935.19;5072141;28;20199;-55
2023/08/13 07:05:17;;;;;;;4.72;4.30;;;;;;;-144.30;29.43;81994.75;5072846;28;20200;-55
2023/08/13 07:07:50;;;;;;;4.75;4.40;;;;;;;-144.30;29.79;81968.94;5072883;28;20238;-52
2023/08/13 07:10:40;;;;;;;5.07;3.95;;;;;;;-144.30;29.34;81978.88;5070532;28;20215;-55
2023/08/13 07:13:28;;;;;;;7.97;4.60;;;;;;;-144.30;29.23;81976.88;5072963;28;20188;-56
2023/08/13 07:16:17;;;;;;;8.30;7.60;;;;;;;-144.30;29.42;82058.31;5071728;28;20200;-51
2023/08/13 07:19:00;;;;;;;7.47;5.47;;;;;;;-144.30;30.10;82137.75;5093458;28;20317;-52
2023/08/13 07:21:43;;;;;;;6.03;4.03;;;;;;;-144.30;30.39;82157.63;5113129;28;20673;-51
2023/08/13 07:24:23;;;;;;;5.82;3.60;;;;;;;-144.30;30.05;82006.69;5113395;28;20198;-52
2023/08/13 07:27:06;;;;;;;8.73;5.00;;;;;;;-144.30;28.63;81684.97;5112545;28;20229;-56
2023/08/13 07:29:47;;;;;;;6.85;3.75;;;;;;;-144.30;27.65;81315.63;5111186;28;20198;-52
2023/08/13 07:32:17;;;;;;;4.75;4.30;;;;;;;-144.30;26.99;81144.88;5112976;28;20217;-51
2023/08/13 07:34:59;;;;;;;4.28;4.07;;;;;;;-144.30;26.57;80851.03;5113137;28;20197;-55
2023/08/13 07:37:48;;;;;;;4.65;3.92;;;;;;;-144.30;25.99;80777.56;5113271;28;20251;-51
2023/08/13 07:40:57;;;;;;;3.90;3.63;;;;;;;-144.30;26.08;80851.03;5111809;28;20658;-52
2023/08/13 07:44:03;;;;;;;4.28;3.88;;;;;;;-144.30;25.93;80952.28;5110302;28;20194;-55
2023/08/13 07:46:58;;;;;;;4.32;4.13;;;;;;;-144.30;26.23;81224.28;5111584;28;20229;-50
2023/08/13 07:52:35;;;;;;;4.13;3.92;;;;;;;-144.30;27.40;81625.38;5111014;28;20262;-55
2023/08/13 07:55:23;;;;;;;4.45;4.03;;;;;;;-144.30;27.06;81500.28;5112605;28;20615;-52
2023/08/13 07:57:51;;;;;;;3.67;3.47;;;;;;;-144.30;25.98;81244.13;5111330;28;20194;-52
2023/08/13 08:00:30;;;;;;;4.97;4.68;;;;;;;-144.30;25.64;81069.41;5112410;28;20206;-51
2023/08/13 08:03:00;;;;;;;3.75;3.55;;;;;;;-144.30;25.47;81057.50;5111999;28;20194;-53
2023/08/13 08:05:49;;;;;;;7.07;3.75;;;;;;;-144.30;25.24;80912.56;5111564;28;20278;-55
2023/08/13 08:08:38;;;;;;;4.18;3.47;;;;;;;-144.30;24.62;80660.44;5111281;28;20285;-50
2023/08/13 08:11:33;;;;;;;4.07;3.78;;;;;;;-144.30;24.45;80519.50;5110938;28;20217;-51
2023/08/13 08:14:21;;;;;;;3.83;3.63;;;;;;;-144.30;24.16;80571.09;5107941;28;20198;-51
2023/08/13 08:17:23;;;;;;;3.72;3.42;;;;;;;-144.30;24.16;80652.50;5112122;28;20201;-52
2023/08/13 08:20:26;;;;;;;;;;;;;;;;;;;;;
2023/08/13 08:23:18;;;;;;;3.45;3.25;;;;;;;-144.30;24.06;80654.47;5112277;28;20599;-51
2023/08/13 08:26:17;;;;;;;;;;;;;;;;;;;;;
2023/08/13 08:29:21;;;;;;;;;;;;;;;;;;;;;
2023/08/13 08:32:14;;;;;;;4.03;3.72;;;;;;;-144.30;24.30;81001.91;5106399;28;20240;-50
2023/08/13 08:35:14;;;;;;;3.58;3.38;;;;;;;-144.30;25.02;81210.38;5111722;28;20662;-55
2023/08/13 08:37:45;;;;;;;4.83;4.43;;;;;;;-144.30;25.34;81472.47;5109651;28;20466;-56
2023/08/13 08:40:16;;;;;;;3.65;3.35;;;;;;;-144.30;25.97;81543.97;5111323;28;20462;-56
2023/08/13 08:43:06;;;;;;;4.00;3.70;;;;;;;-144.30;25.74;81492.34;5110898;28;20217;-56
2023/08/13 08:46:03;;;;;;;4.13;3.78;;;;;;;-144.30;25.75;81516.16;5111910;28;20247;-52
2023/08/13 08:49:05;;;;;;;3.50;3.30;;;;;;;-144.30;25.58;81462.56;5111756;28;20194;-52
2023/08/13 08:51:58;;;;;;;3.50;3.30;;;;;;;-144.30;25.45;81391.06;5111151;28;20218;-53
2023/08/13 08:54:44;;;;;;;4.00;3.80;;;;;;;-144.30;25.63;81581.69;5109487;28;20195;-56
2023/08/13 08:57:38;;;;;;;4.82;4.53;;;;;;;-144.30;25.71;81748.50;5109331;28;20201;-52
2023/08/13 09:00:23;;;;;;;3.90;3.70;;;;;;;-144.30;26.63;81982.84;5110726;28;20285;-53
2023/08/13 09:02:52;;;;;;;3.67;3.47;;;;;;;-144.30;26.73;81990.78;5104677;28;20194;-56
2023/08/13 09:05:26;;;;;;;4.07;3.47;;;;;;;-144.30;27.11;82026.53;5110786;28;20671;-56
2023/08/13 09:07:58;;;;;;;4.00;3.60;;;;;;;-144.30;26.73;81935.19;5110832;28;20225;-52
2023/08/13 09:10:25;;;;;;;4.00;3.70;;;;;;;-144.30;26.88;81897.44;5108337;28;20194;-56
2023/08/13 09:12:58;;;;;;;4.05;3.83;;;;;;;-144.30;26.75;82002.69;5110724;28;20571;-56
2023/08/13 09:15:33;;;;;;;6.20;4.22;;;;;;;-144.30;27.14;82133.78;5108557;28;20205;-56
2023/08/13 09:18:05;;;;;;;3.78;3.58;;;;;;;-144.30;28.03;82320.47;5109619;28;20226;-56
2023/08/13 09:20:47;;;;;;;4.97;3.55;;;;;;;-144.30;28.31;82409.84;5110769;28;20555;-56
2023/08/13 09:23:22;;;;;;;3.53;3.33;;;;;;;-144.30;29.09;82598.56;5108342;28;20277;-56
2023/08/13 09:25:59;;;;;;;3.58;3.30;;;;;;;-144.30;29.35;82662.09;5108544;28;20229;-55
2023/08/13 09:28:36;;;;;;;4.22;3.92;;;;;;;-144.30;30.01;82821.03;5108608;28;20267;-55
2023/08/13 09:31:06;;;;;;;8.80;5.22;;;;;;;-144.30;30.67;82868.69;5110987;28;20205;-55
2023/08/13 09:33:35;;;;;;;4.30;4.00;;;;;;;-144.30;31.44;82946.16;5110574;28;20202;-55
2023/08/13 09:36:17;;;;;;;10.32;4.25;;;;;;;-144.30;32.12;82924.31;5110548;28;20194;-51
2023/08/13 09:39:07;;;;;;;7.10;4.28;;;;;;;-144.30;33.67;83017.69;5110160;28;20230;-51
2023/08/13 09:42:06;;;;;;;5.22;4.05;;;;;;;-144.30;36.14;83067.34;5110459;28;20612;-51
2023/08/13 09:45:06;;;;;;;7.07;4.30;;;;;;;-144.30;34.09;83079.28;5110509;28;20256;-51
2023/08/13 09:48:13;;;;;;;5.22;4.82;;;;;;;-144.30;34.63;83115.03;5110352;28;20198;-52
2023/08/13 09:51:17;;;;;;;;;;;;;;;;;;;;;
2023/08/13 09:53:55;;;;;;;5.50;4.05;;;;;;;-144.30;34.78;83198.47;5109803;28;20703;-55
2023/08/13 09:56:59;;;;;;;6.30;4.65;;;;;;;-144.30;35.25;83214.38;5110267;28;20206;-56
2023/08/13 10:00:00;;;;;;;5.75;4.88;;;;;;;-144.30;36.87;83208.41;5109441;28;20198;-52
2023/08/13 10:02:42;;;;;;;4.53;4.00;;;;;;;-144.30;35.62;83264.03;5110053;28;20194;-56
2023/08/13 10:05:17;;;;;;;5.10;4.70;;;;;;;-144.30;36.37;83254.09;5110462;28;20849;-52
2023/08/13 10:08:08;;;;;;;4.45;4.07;;;;;;;-144.30;36.14;83254.09;5109083;28;20670;-51
2023/08/13 10:10:41;;;;;;;5.32;4.47;;;;;;;-144.30;36.33;83258.06;5110424;28;20705;-53
2023/08/13 10:13:11;;;;;;;5.00;4.50;;;;;;;-144.30;36.18;83250.13;5105409;28;20238;-52
2023/08/13 10:15:43;;;;;;;6.22;4.60;;;;;;;-144.30;36.34;83138.88;5109260;28;20199;-55
2023/08/13 10:18:20;;;;;;;6.50;4.30;;;;;;;-144.30;35.68;83281.91;5109086;28;20269;-52
2023/08/13 10:21:01;;;;;;;8.75;4.43;;;;;;;-144.30;37.49;83190.53;5107269;28;20202;-51
2023/08/13 10:23:36;;;;;;;6.05;4.20;;;;;;;-144.30;36.40;83073.31;5108769;28;20202;-51
2023/08/13 10:26:12;;;;;;;9.23;5.50;;;;;;;-144.30;35.10;83107.09;5109587;28;20662;-53
2023/08/13 10:28:56;;;;;;;8.90;4.88;;;;;;;-144.30;35.03;83011.72;5088490;28;20205;-54
2023/08/13 10:31:36;;;;;;;6.78;6.13;;;;;;;-144.30;35.23;83001.78;5094869;28;20222;-55
2023/08/13 10:34:26;;;;;;;8.40;6.03;;;;;;;-144.30;36.03;82987.88;5109623;28;20197;-56
2023/08/13 10:37:18;;;;;;;9.88;7.95;;;;;;;-144.30;33.98;82972.00;5109407;28;20195;-55
2023/08/13 10:40:08;;;;;;;12.80;9.95;;;;;;;-144.30;34.71;82936.25;5106703;28;20202;-57
2023/08/13 10:42:53;;;;;;;7.90;6.30;;;;;;;-144.30;33.82;82975.97;5109694;28;20239;-53
2023/08/13 10:45:35;;;;;;;7.70;4.90;;;;;;;-144.30;34.10;82972.00;5109434;28;20674;-57
2023/08/13 10:48:17;;;;;;;5.32;4.82;;;;;;;-144.30;35.15;82960.06;5109301;28;20282;-52
2023/08/13 10:50:59;;;;;;;5.32;4.82;;;;;;;-144.30;36.07;82952.13;5109506;28;20194;-54
2023/08/13 10:53:39;;;;;;;5.32;4.93;;;;;;;-144.30;34.71;82995.84;5107701;28;20743;-56
2023/08/13 10:56:23;;;;;;;12.05;10.88;;;;;;;-144.30;34.76;82987.88;5107130;28;20284;-55
2023/08/13 10:58:53;;;;;;;6.55;5.95;;;;;;;-144.30;34.01;83015.69;5108556;28;20202;-57
2023/08/13 11:01:33;;;;;;;7.97;6.03;;;;;;;-144.30;34.11;82958.09;5109649;28;20753;-53
2023/08/13 11:04:06;;;;;;;9.23;5.95;;;;;;;-144.30;34.32;83283.91;5109070;28;20202;-56
2023/08/13 11:06:41;;;;;;;6.18;5.57;;;;;;;-144.30;33.72;83041.53;5109009;28;20695;-56
2023/08/13 11:09:18;;;;;;;8.00;7.30;;;;;;;-144.30;34.59;83013.72;5109636;28;20692;-56
2023/08/13 11:11:53;;;;;;;7.22;6.25;;;;;;;-144.30;34.24;83011.72;5109350;28;20225;-56
2023/08/13 11:14:29;;;;;;;6.25;5.45;;;;;;;-144.30;35.11;82973.97;5109411;28;20204;-56
2023/08/13 11:17:01;;;;;;;5.68;5.28;;;;;;;-144.30;33.57;83091.19;5109324;28;20255;-58
2023/08/13 11:19:28;;;;;;;6.30;5.75;;;;;;;-144.30;34.79;83130.94;5108102;28;20382;-52
2023/08/13 11:22:04;;;;;;;11.25;7.47;;;;;;;-144.30;34.74;83146.81;5109304;28;20614;-52
2023/08/13 11:24:46;;;;;;;5.82;5.43;;;;;;;-144.30;35.20;83180.59;5108969;28;20247;-54
2023/08/13 11:27:50;;;;;;;7.03;5.57;;;;;;;-144.30;35.39;83170.66;5108866;28;20205;-55
2023/08/13 11:30:29;;;;;;;4.20;3.80;;;;;;;-144.30;33.94;83174.63;5103453;28;20213;-52
2023/08/13 11:33:10;;;;;;;6.70;6.22;;;;;;;-144.30;33.67;83130.94;5112741;28;20617;-52
2023/08/13 11:35:54;;;;;;;5.25;4.95;;;;;;;-144.30;33.87;83142.84;5102618;28;20194;-52
2023/08/13 11:38:38;;;;;;;9.00;5.90;;;;;;;-144.30;33.36;83063.38;5111719;28;20727;-55
2023/08/13 11:41:38;;;;;;;5.95;5.45;;;;;;;-144.30;33.07;83019.69;5109560;28;20230;-54
2023/08/13 11:44:29;;;;;;;5.45;5.03;;;;;;;-144.30;32.75;83023.66;5111143;28;20194;-53
2023/08/13 11:47:31;;;;;;;4.50;4.13;;;;;;;-144.30;32.28;83019.69;5109263;28;20202;-52
2023/08/13 11:50:26;;;;;;;4.20;3.80;;;;;;;-144.30;32.29;82848.84;5112615;28;20200;-52
2023/08/13 11:56:16;;;;;;;9.70;8.95;;;;;;;-144.30;32.23;82956.09;5111018;28;20206;-51
2023/08/13 11:59:13;;;;;;;4.75;4.38;;;;;;;-144.30;31.80;82912.41;5110299;28;20566;-56
2023/08/13 12:04:53;;;;;;;5.43;5.03;;;;;;;-144.30;31.77;82884.59;5111718;28;20202;-55
2023/08/13 12:07:43;;;;;;;4.75;4.45;;;;;;;-144.30;31.50;82894.53;5111259;28;20237;-51
2023/08/13 12:10:23;;;;;;;7.18;6.65;;;;;;;-144.30;31.18;82832.94;5111641;28;20265;-56
2023/08/13 12:12:57;;;;;;;5.97;5.55;;;;;;;-144.30;30.71;82825.00;5111040;28;20222;-55
2023/08/13 12:15:34;;;;;;;4.32;4.13;;;;;;;-144.30;30.88;82884.59;5111482;28;20286;-52
2023/08/13 12:18:18;;;;;;;4.32;4.13;;;;;;;-144.30;30.93;82892.53;5109602;28;20206;-52
2023/08/13 12:21:03;;;;;;;5.97;4.18;;;;;;;-144.30;30.79;82848.84;5106411;28;20202;-53
2023/08/13 12:23:51;;;;;;;3.95;3.75;;;;;;;-144.30;30.45;82832.94;5109730;28;20198;-52
2023/08/13 12:26:33;;;;;;;4.18;3.97;;;;;;;-144.30;30.50;82803.16;5101396;28;20670;-56
2023/08/13 12:29:13;;;;;;;4.32;3.85;;;;;;;-144.30;30.66;82803.16;5111292;28;20226;-56
2023/08/13 12:31:59;;;;;;;4.30;4.10;;;;;;;-144.30;30.26;82795.19;5109986;28;20198;-56
2023/08/13 12:34:30;;;;;;;3.55;3.35;;;;;;;-144.30;30.28;82848.84;5110798;28;20190;-51
2023/08/13 12:37:01;;;;;;;4.88;4.53;;;;;;;-144.30;30.40;82779.31;5111219;28;20709;-51
2023/08/13 12:42:55;;;;;;;6.47;5.97;;;;;;;-144.30;30.11;82719.72;5108734;28;20211;-52
2023/08/13 12:45:27;;;;;;;4.95;4.65;;;;;;;-144.30;29.96;82727.66;5111632;28;20194;-56
2023/08/13 12:48:07;;;;;;;4.78;4.40;;;;;;;-144.30;29.97;82705.81;5111535;28;20281;-56
2023/08/13 12:50:44;;;;;;;8.43;7.82;;;;;;;-144.30;29.97;82711.78;5110386;28;20206;-57
2023/08/13 12:53:20;;;;;;;5.22;4.32;;;;;;;-144.30;29.88;82624.38;5104625;28;20279;-55
2023/08/13 12:55:51;;;;;;;4.40;4.00;;;;;;;-144.30;29.65;82674.03;5110532;28;20197;-56
2023/08/13 12:58:23;;;;;;;5.57;5.07;;;;;;;-144.30;30.07;82697.88;5110849;28;20201;-52
2023/08/13 13:00:56;;;;;;;6.07;5.38;;;;;;;-144.30;30.12;82729.66;5108292;28;20646;-56
2023/08/13 13:03:37;;;;;;;5.65;4.93;;;;;;;-144.30;30.47;82745.53;5108712;28;20670;-53
2023/08/13 13:06:11;;;;;;;4.40;4.13;;;;;;;-144.30;30.41;82739.56;5108902;28;20207;-53
2023/08/13 13:08:54;;;;;;;4.30;4.00;;;;;;;-144.30;30.34;82741.56;5111175;28;20263;-53
2023/08/13 13:11:30;;;;;;;3.90;3.63;;;;;;;-144.30;30.36;82749.50;5111168;28;20555;-53
2023/08/13 13:14:01;;;;;;;4.40;4.10;;;;;;;-144.30;30.40;82821.03;5109311;28;20232;-52
2023/08/13 13:16:40;;;;;;;4.28;4.00;;;;;;;-144.30;30.35;82777.31;5110785;28;20240;-56
2023/08/13 13:19:26;;;;;;;4.10;3.75;;;;;;;-144.30;30.55;82890.56;5110606;28;20288;-51
2023/08/13 13:22:12;;;;;;;3.85;3.65;;;;;;;-144.30;30.85;82836.91;5108801;28;20195;-53
2023/08/13 13:24:58;;;;;;;4.05;3.70;;;;;;;-144.30;30.89;82908.44;5110018;28;20229;-55
2023/08/13 13:27:52;;;;;;;4.53;4.13;;;;;;;-144.30;31.15;82896.50;5110946;28;20591;-55
2023/08/13 13:30:25;;;;;;;4.20;4.00;;;;;;;-144.30;30.77;82924.31;5109100;28;20277;-53
2023/08/13 13:33:03;;;;;;;4.28;3.58;;;;;;;-144.30;30.69;82972.00;5107638;28;20222;-55